sensor_id;sensor_type;location;lat;lon;timestamp;temperature;humidity
16229;DHT22;8222;51.462;12.630;2023-04-06T00:02:07;3.20;99.90
16229;DHT22;8222;51.462;12.630;2023-04-06T00:04:35;3.20;99.90
16229;DHT22;8222;51.462;12.630;2023-04-06T00:07:01;3.20;99.90
16229;DHT22;8222;51.462;12.630;2023-04-06T00:09:26;3.10;99.90
16229;DHT22;8222;51.462;12.630;2023-04-06T00:11:52;3.00;99.90
16229;DHT22;8222;51.462;12.630;2023-04-06T00:14:18;3.00;99.90
16229;DHT22;8222;51.462;12.630;2023-04-06T00:16:44;3.10;99.90
16229;DHT22;8222;51.462;12.630;2023-04-06T00:19:09;3.00;99.90
16229;DHT22;8222;51.462;12.630;2023-04-06T00:21:35;3.00;99.90
16229;DHT22;8222;51.462;12.630;2023-04-06T00:24:03;2.90;99.90
16229;DHT22;8222;51.462;12.630;2023-04-06T00:26:29;2.90;99.90
16229;DHT22;8222;51.462;12.630;2023-04-06T00:28:55;3.00;99.90
16229;DHT22;8222;51.462;12.630;2023-04-06T00:31:21;3.00;99.90
16229;DHT22;8222;51.462;12.630;2023-04-06T00:33:48;2.90;99.90
16229;DHT22;8222;51.462;12.630;2023-04-06T00:36:15;2.90;99.90
16229;DHT22;8222;51.462;12.630;2023-04-06T00:38:41;2.90;99.90
16229;DHT22;8222;51.462;12.630;2023-04-06T00:41:07;2.90;99.90
16229;DHT22;8222;51.462;12.630;2023-04-06T00:43:34;2.90;99.90
16229;DHT22;8222;51.462;12.630;2023-04-06T00:46:00;2.90;99.90
16229;DHT22;8222;51.462;12.630;2023-04-06T00:48:26;2.90;99.90
16229;DHT22;8222;51.462;12.630;2023-04-06T00:50:52;2.80;99.90
16229;DHT22;8222;51.462;12.630;2023-04-06T00:53:18;2.80;99.90
16229;DHT22;8222;51.462;12.630;2023-04-06T00:55:43;2.80;99.90
16229;DHT22;8222;51.462;12.630;2023-04-06T00:58:09;2.90;99.90
16229;DHT22;8222;51.462;12.630;2023-04-06T01:00:35;2.80;99.90
16229;DHT22;8222;51.462;12.630;2023-04-06T01:03:01;2.80;99.90
16229;DHT22;8222;51.462;12.630;2023-04-06T01:05:27;2.70;99.90
16229;DHT22;8222;51.462;12.630;2023-04-06T01:07:52;2.70;99.90
16229;DHT22;8222;51.462;12.630;2023-04-06T01:10:28;2.70;99.90
16229;DHT22;8222;51.462;12.630;2023-04-06T01:12:55;2.60;99.90
16229;DHT22;8222;51.462;12.630;2023-04-06T01:15:21;2.60;99.90
16229;DHT22;8222;51.462;12.630;2023-04-06T01:17:47;2.60;99.90
16229;DHT22;8222;51.462;12.630;2023-04-06T01:20:13;2.60;99.90
16229;DHT22;8222;51.462;12.630;2023-04-06T01:22:39;2.60;99.90
16229;DHT22;8222;51.462;12.630;2023-04-06T01:25:06;2.60;99.90
16229;DHT22;8222;51.462;12.630;2023-04-06T01:27:33;2.50;99.90
16229;DHT22;8222;51.462;12.630;2023-04-06T01:29:59;2.50;99.90
16229;DHT22;8222;51.462;12.630;2023-04-06T01:32:25;2.40;99.90
16229;DHT22;8222;51.462;12.630;2023-04-06T01:34:51;2.40;99.90
16229;DHT22;8222;51.462;12.630;2023-04-06T01:37:17;2.30;99.90
16229;DHT22;8222;51.462;12.630;2023-04-06T01:39:45;2.40;99.90
16229;DHT22;8222;51.462;12.630;2023-04-06T01:42:10;2.40;99.90
16229;DHT22;8222;51.462;12.630;2023-04-06T01:44:36;2.30;99.90
16229;DHT22;8222;51.462;12.630;2023-04-06T01:47:02;2.30;99.90
16229;DHT22;8222;51.462;12.630;2023-04-06T01:49:30;2.30;99.90
16229;DHT22;8222;51.462;12.630;2023-04-06T01:51:56;2.30;99.90
16229;DHT22;8222;51.462;12.630;2023-04-06T01:54:22;2.30;99.90
16229;DHT22;8222;51.462;12.630;2023-04-06T01:56:49;2.30;99.90
16229;DHT22;8222;51.462;12.630;2023-04-06T01:59:16;2.50;99.90
16229;DHT22;8222;51.462;12.630;2023-04-06T02:01:42;2.70;99.90
16229;DHT22;8222;51.462;12.630;2023-04-06T02:04:08;2.60;99.90
16229;DHT22;8222;51.462;12.630;2023-04-06T02:06:33;2.70;99.90
16229;DHT22;8222;51.462;12.630;2023-04-06T02:09:01;2.80;99.90
16229;DHT22;8222;51.462;12.630;2023-04-06T02:11:27;2.90;99.90
16229;DHT22;8222;51.462;12.630;2023-04-06T02:13:52;2.90;99.90
16229;DHT22;8222;51.462;12.630;2023-04-06T02:16:18;2.90;99.90
16229;DHT22;8222;51.462;12.630;2023-04-06T02:18:44;2.80;99.90
16229;DHT22;8222;51.462;12.630;2023-04-06T02:21:12;2.80;99.90
16229;DHT22;8222;51.462;12.630;2023-04-06T02:23:38;2.70;99.90
16229;DHT22;8222;51.462;12.630;2023-04-06T02:26:03;2.80;99.90
16229;DHT22;8222;51.462;12.630;2023-04-06T02:28:29;2.80;99.90
16229;DHT22;8222;51.462;12.630;2023-04-06T02:30:55;2.80;99.90
16229;DHT22;8222;51.462;12.630;2023-04-06T02:33:22;2.90;99.90
16229;DHT22;8222;51.462;12.630;2023-04-06T02:35:48;2.90;99.90
16229;DHT22;8222;51.462;12.630;2023-04-06T02:38:14;2.90;99.90
16229;DHT22;8222;51.462;12.630;2023-04-06T02:40:39;3.00;99.90
16229;DHT22;8222;51.462;12.630;2023-04-06T02:43:06;3.00;99.90
16229;DHT22;8222;51.462;12.630;2023-04-06T02:45:33;3.10;99.90
16229;DHT22;8222;51.462;12.630;2023-04-06T02:47:59;3.10;99.90
16229;DHT22;8222;51.462;12.630;2023-04-06T02:50:25;3.10;99.90
16229;DHT22;8222;51.462;12.630;2023-04-06T02:52:53;3.10;99.90
16229;DHT22;8222;51.462;12.630;2023-04-06T02:55:18;3.20;99.90
16229;DHT22;8222;51.462;12.630;2023-04-06T02:57:45;3.20;99.90
16229;DHT22;8222;51.462;12.630;2023-04-06T03:00:11;3.20;99.90
16229;DHT22;8222;51.462;12.630;2023-04-06T03:02:38;3.20;99.90
16229;DHT22;8222;51.462;12.630;2023-04-06T03:05:04;3.20;99.90
16229;DHT22;8222;51.462;12.630;2023-04-06T03:07:29;3.30;99.90
16229;DHT22;8222;51.462;12.630;2023-04-06T03:09:55;3.40;99.90
16229;DHT22;8222;51.462;12.630;2023-04-06T03:12:21;3.30;99.90
16229;DHT22;8222;51.462;12.630;2023-04-06T03:14:46;3.40;99.90
16229;DHT22;8222;51.462;12.630;2023-04-06T03:17:12;3.40;99.90
16229;DHT22;8222;51.462;12.630;2023-04-06T03:19:40;3.40;99.90
16229;DHT22;8222;51.462;12.630;2023-04-06T03:22:05;3.60;99.90
16229;DHT22;8222;51.462;12.630;2023-04-06T03:24:31;3.60;99.90
16229;DHT22;8222;51.462;12.630;2023-04-06T03:26:57;3.60;99.90
16229;DHT22;8222;51.462;12.630;2023-04-06T03:29:23;3.60;99.90
16229;DHT22;8222;51.462;12.630;2023-04-06T03:31:48;3.60;99.90
16229;DHT22;8222;51.462;12.630;2023-04-06T03:34:14;3.60;99.90
16229;DHT22;8222;51.462;12.630;2023-04-06T03:36:42;3.60;99.90
16229;DHT22;8222;51.462;12.630;2023-04-06T03:39:08;3.60;99.90
16229;DHT22;8222;51.462;12.630;2023-04-06T03:41:33;3.60;99.90
16229;DHT22;8222;51.462;12.630;2023-04-06T03:43:59;3.60;99.90
16229;DHT22;8222;51.462;12.630;2023-04-06T03:46:25;3.70;99.90
16229;DHT22;8222;51.462;12.630;2023-04-06T03:48:51;3.70;99.90
16229;DHT22;8222;51.462;12.630;2023-04-06T03:51:16;3.70;99.90
16229;DHT22;8222;51.462;12.630;2023-04-06T03:53:42;3.70;99.90
16229;DHT22;8222;51.462;12.630;2023-04-06T03:56:08;3.70;99.90
16229;DHT22;8222;51.462;12.630;2023-04-06T03:58:34;3.70;99.90
16229;DHT22;8222;51.462;12.630;2023-04-06T04:01:00;3.80;99.90
16229;DHT22;8222;51.462;12.630;2023-04-06T04:03:25;3.80;99.90
16229;DHT22;8222;51.462;12.630;2023-04-06T04:05:53;3.80;99.90
16229;DHT22;8222;51.462;12.630;2023-04-06T04:08:20;3.80;99.90
16229;DHT22;8222;51.462;12.630;2023-04-06T04:10:46;3.80;99.90
16229;DHT22;8222;51.462;12.630;2023-04-06T04:13:12;3.80;99.90
16229;DHT22;8222;51.462;12.630;2023-04-06T04:15:37;3.90;99.90
16229;DHT22;8222;51.462;12.630;2023-04-06T04:18:05;3.80;99.90
16229;DHT22;8222;51.462;12.630;2023-04-06T04:20:31;3.90;99.90
16229;DHT22;8222;51.462;12.630;2023-04-06T04:22:56;3.90;99.90
16229;DHT22;8222;51.462;12.630;2023-04-06T04:25:23;3.90;99.90
16229;DHT22;8222;51.462;12.630;2023-04-06T04:27:50;3.90;99.90
16229;DHT22;8222;51.462;12.630;2023-04-06T04:30:16;3.90;99.90
16229;DHT22;8222;51.462;12.630;2023-04-06T04:32:42;3.80;99.90
16229;DHT22;8222;51.462;12.630;2023-04-06T04:35:10;3.80;99.90
16229;DHT22;8222;51.462;12.630;2023-04-06T04:37:36;3.80;99.90
16229;DHT22;8222;51.462;12.630;2023-04-06T04:40:02;3.90;99.90
16229;DHT22;8222;51.462;12.630;2023-04-06T04:42:30;3.90;99.90
16229;DHT22;8222;51.462;12.630;2023-04-06T04:44:56;4.00;99.90
16229;DHT22;8222;51.462;12.630;2023-04-06T04:47:22;3.90;99.90
16229;DHT22;8222;51.462;12.630;2023-04-06T04:49:47;3.80;99.90
16229;DHT22;8222;51.462;12.630;2023-04-06T04:52:15;3.70;99.90
16229;DHT22;8222;51.462;12.630;2023-04-06T04:54:41;3.80;99.90
16229;DHT22;8222;51.462;12.630;2023-04-06T04:57:07;3.70;99.90
16229;DHT22;8222;51.462;12.630;2023-04-06T04:59:35;3.70;99.90
16229;DHT22;8222;51.462;12.630;2023-04-06T05:02:01;3.70;99.90
16229;DHT22;8222;51.462;12.630;2023-04-06T05:04:27;3.60;99.90
16229;DHT22;8222;51.462;12.630;2023-04-06T05:07:06;3.70;99.90
16229;DHT22;8222;51.462;12.630;2023-04-06T05:09:32;3.60;99.90
16229;DHT22;8222;51.462;12.630;2023-04-06T05:11:59;3.70;99.90
16229;DHT22;8222;51.462;12.630;2023-04-06T05:14:27;3.60;99.90
16229;DHT22;8222;51.462;12.630;2023-04-06T05:16:53;3.70;99.90
16229;DHT22;8222;51.462;12.630;2023-04-06T05:19:19;3.60;99.90
16229;DHT22;8222;51.462;12.630;2023-04-06T05:21:45;3.60;99.90
16229;DHT22;8222;51.462;12.630;2023-04-06T05:24:11;3.50;99.90
16229;DHT22;8222;51.462;12.630;2023-04-06T05:26:37;3.50;99.90
16229;DHT22;8222;51.462;12.630;2023-04-06T05:29:03;3.60;99.90
16229;DHT22;8222;51.462;12.630;2023-04-06T05:31:29;3.70;99.90
16229;DHT22;8222;51.462;12.630;2023-04-06T05:33:57;3.60;99.90
16229;DHT22;8222;51.462;12.630;2023-04-06T05:36:22;3.60;99.90
16229;DHT22;8222;51.462;12.630;2023-04-06T05:38:50;3.60;99.90
16229;DHT22;8222;51.462;12.630;2023-04-06T05:41:18;3.50;99.90
16229;DHT22;8222;51.462;12.630;2023-04-06T05:43:44;3.70;99.90
16229;DHT22;8222;51.462;12.630;2023-04-06T05:46:10;3.70;99.90
16229;DHT22;8222;51.462;12.630;2023-04-06T05:48:38;3.70;99.90
16229;DHT22;8222;51.462;12.630;2023-04-06T05:51:04;3.70;99.90
16229;DHT22;8222;51.462;12.630;2023-04-06T05:53:32;3.70;99.90
16229;DHT22;8222;51.462;12.630;2023-04-06T05:56:03;3.80;99.90
16229;DHT22;8222;51.462;12.630;2023-04-06T05:58:29;4.00;99.90
16229;DHT22;8222;51.462;12.630;2023-04-06T06:00:58;4.00;99.90
16229;DHT22;8222;51.462;12.630;2023-04-06T06:03:24;4.20;99.90
16229;DHT22;8222;51.462;12.630;2023-04-06T06:05:52;4.30;99.90
16229;DHT22;8222;51.462;12.630;2023-04-06T06:08:18;4.40;99.90
16229;DHT22;8222;51.462;12.630;2023-04-06T06:10:44;4.50;99.90
16229;DHT22;8222;51.462;12.630;2023-04-06T06:13:09;4.60;99.90
16229;DHT22;8222;51.462;12.630;2023-04-06T06:15:35;4.70;99.90
16229;DHT22;8222;51.462;12.630;2023-04-06T06:18:03;4.90;99.90
16229;DHT22;8222;51.462;12.630;2023-04-06T06:20:28;5.10;99.90
16229;DHT22;8222;51.462;12.630;2023-04-06T06:22:54;5.20;99.90
16229;DHT22;8222;51.462;12.630;2023-04-06T06:25:21;5.30;99.90
16229;DHT22;8222;51.462;12.630;2023-04-06T06:27:49;5.30;99.90
16229;DHT22;8222;51.462;12.630;2023-04-06T06:30:15;5.60;99.90
16229;DHT22;8222;51.462;12.630;2023-04-06T06:32:40;5.70;99.90
16229;DHT22;8222;51.462;12.630;2023-04-06T06:35:08;5.80;99.90
16229;DHT22;8222;51.462;12.630;2023-04-06T06:37:34;6.00;99.90
16229;DHT22;8222;51.462;12.630;2023-04-06T06:40:00;6.30;99.90
16229;DHT22;8222;51.462;12.630;2023-04-06T06:42:27;6.40;99.90
16229;DHT22;8222;51.462;12.630;2023-04-06T06:44:54;6.50;99.90
16229;DHT22;8222;51.462;12.630;2023-04-06T06:47:19;6.50;99.90
16229;DHT22;8222;51.462;12.630;2023-04-06T06:49:45;6.60;99.90
16229;DHT22;8222;51.462;12.630;2023-04-06T06:52:11;6.60;99.90
16229;DHT22;8222;51.462;12.630;2023-04-06T06:54:36;6.70;99.90
16229;DHT22;8222;51.462;12.630;2023-04-06T06:57:02;6.70;99.90
16229;DHT22;8222;51.462;12.630;2023-04-06T06:59:28;6.70;99.90
16229;DHT22;8222;51.462;12.630;2023-04-06T07:01:54;7.00;99.90
16229;DHT22;8222;51.462;12.630;2023-04-06T07:04:22;7.10;99.90
16229;DHT22;8222;51.462;12.630;2023-04-06T07:06:48;7.20;99.90
16229;DHT22;8222;51.462;12.630;2023-04-06T07:09:13;7.30;99.90
16229;DHT22;8222;51.462;12.630;2023-04-06T07:11:39;7.40;99.90
16229;DHT22;8222;51.462;12.630;2023-04-06T07:14:05;7.80;99.90
16229;DHT22;8222;51.462;12.630;2023-04-06T07:16:33;7.90;99.90
16229;DHT22;8222;51.462;12.630;2023-04-06T07:18:59;7.90;99.90
16229;DHT22;8222;51.462;12.630;2023-04-06T07:21:24;8.10;99.90
16229;DHT22;8222;51.462;12.630;2023-04-06T07:23:50;8.20;99.90
16229;DHT22;8222;51.462;12.630;2023-04-06T07:26:16;8.40;99.90
16229;DHT22;8222;51.462;12.630;2023-04-06T07:28:42;8.60;99.90
16229;DHT22;8222;51.462;12.630;2023-04-06T07:31:08;9.00;99.90
16229;DHT22;8222;51.462;12.630;2023-04-06T07:33:33;9.00;99.90
16229;DHT22;8222;51.462;12.630;2023-04-06T07:35:59;9.10;99.90
16229;DHT22;8222;51.462;12.630;2023-04-06T07:38:25;9.10;99.90
16229;DHT22;8222;51.462;12.630;2023-04-06T07:40:52;9.00;99.90
16229;DHT22;8222;51.462;12.630;2023-04-06T07:43:18;9.10;99.90
16229;DHT22;8222;51.462;12.630;2023-04-06T07:45:44;9.40;99.90
16229;DHT22;8222;51.462;12.630;2023-04-06T07:48:09;9.40;99.90
16229;DHT22;8222;51.462;12.630;2023-04-06T07:50:35;9.40;99.90
16229;DHT22;8222;51.462;12.630;2023-04-06T07:53:01;9.50;99.90
16229;DHT22;8222;51.462;12.630;2023-04-06T07:55:29;9.70;99.90
16229;DHT22;8222;51.462;12.630;2023-04-06T07:57:55;9.80;99.90
16229;DHT22;8222;51.462;12.630;2023-04-06T08:00:21;10.00;99.90
16229;DHT22;8222;51.462;12.630;2023-04-06T08:02:47;10.10;99.90
16229;DHT22;8222;51.462;12.630;2023-04-06T08:05:12;10.20;99.90
16229;DHT22;8222;51.462;12.630;2023-04-06T08:07:38;10.30;99.90
16229;DHT22;8222;51.462;12.630;2023-04-06T08:10:04;10.30;99.90
16229;DHT22;8222;51.462;12.630;2023-04-06T08:12:31;10.40;99.90
16229;DHT22;8222;51.462;12.630;2023-04-06T08:14:59;10.40;99.90
16229;DHT22;8222;51.462;12.630;2023-04-06T08:17:25;10.50;99.90
16229;DHT22;8222;51.462;12.630;2023-04-06T08:19:51;10.70;99.90
16229;DHT22;8222;51.462;12.630;2023-04-06T08:22:16;10.80;98.60
16229;DHT22;8222;51.462;12.630;2023-04-06T08:24:42;10.80;95.80
16229;DHT22;8222;51.462;12.630;2023-04-06T08:27:08;10.90;91.80
16229;DHT22;8222;51.462;12.630;2023-04-06T08:29:34;11.00;91.00
16229;DHT22;8222;51.462;12.630;2023-04-06T08:32:00;11.20;93.10
16229;DHT22;8222;51.462;12.630;2023-04-06T08:34:26;11.20;93.50
16229;DHT22;8222;51.462;12.630;2023-04-06T08:36:52;11.30;91.60
16229;DHT22;8222;51.462;12.630;2023-04-06T08:39:17;11.30;90.60
16229;DHT22;8222;51.462;12.630;2023-04-06T08:41:51;11.30;90.90
16229;DHT22;8222;51.462;12.630;2023-04-06T08:44:18;11.40;86.80
16229;DHT22;8222;51.462;12.630;2023-04-06T08:46:43;11.50;87.10
16229;DHT22;8222;51.462;12.630;2023-04-06T08:49:09;11.60;86.20
16229;DHT22;8222;51.462;12.630;2023-04-06T08:51:37;11.60;90.60
16229;DHT22;8222;51.462;12.630;2023-04-06T08:54:03;11.50;89.00
16229;DHT22;8222;51.462;12.630;2023-04-06T08:56:29;11.60;89.40
16229;DHT22;8222;51.462;12.630;2023-04-06T08:58:55;11.60;89.10
16229;DHT22;8222;51.462;12.630;2023-04-06T09:01:25;11.60;88.40
16229;DHT22;8222;51.462;12.630;2023-04-06T09:03:55;11.60;87.20
16229;DHT22;8222;51.462;12.630;2023-04-06T09:06:21;11.60;88.00
16229;DHT22;8222;51.462;12.630;2023-04-06T09:08:47;11.70;86.90
16229;DHT22;8222;51.462;12.630;2023-04-06T09:11:13;11.70;88.60
16229;DHT22;8222;51.462;12.630;2023-04-06T09:13:52;11.80;87.20
16229;DHT22;8222;51.462;12.630;2023-04-06T09:16:20;12.00;87.50
16229;DHT22;8222;51.462;12.630;2023-04-06T09:18:47;12.30;87.10
16229;DHT22;8222;51.462;12.630;2023-04-06T09:21:18;12.50;82.70
16229;DHT22;8222;51.462;12.630;2023-04-06T09:23:44;12.60;80.80
16229;DHT22;8222;51.462;12.630;2023-04-06T09:26:13;12.60;79.20
16229;DHT22;8222;51.462;12.630;2023-04-06T09:28:46;12.50;75.70
16229;DHT22;8222;51.462;12.630;2023-04-06T09:31:15;12.50;80.90
16229;DHT22;8222;51.462;12.630;2023-04-06T09:33:44;12.70;80.90
16229;DHT22;8222;51.462;12.630;2023-04-06T09:36:10;13.00;78.30
16229;DHT22;8222;51.462;12.630;2023-04-06T09:38:55;12.90;75.00
16229;DHT22;8222;51.462;12.630;2023-04-06T09:41:22;13.00;71.90
16229;DHT22;8222;51.462;12.630;2023-04-06T09:44:10;12.80;75.00
16229;DHT22;8222;51.462;12.630;2023-04-06T09:46:39;12.80;74.90
16229;DHT22;8222;51.462;12.630;2023-04-06T09:49:07;12.80;75.60
16229;DHT22;8222;51.462;12.630;2023-04-06T09:54:03;13.00;72.90
16229;DHT22;8222;51.462;12.630;2023-04-06T09:56:46;13.00;71.60
16229;DHT22;8222;51.462;12.630;2023-04-06T09:59:18;13.20;71.80
16229;DHT22;8222;51.462;12.630;2023-04-06T10:01:47;13.30;71.90
16229;DHT22;8222;51.462;12.630;2023-04-06T10:07:05;13.00;71.60
16229;DHT22;8222;51.462;12.630;2023-04-06T10:09:34;13.10;72.00
16229;DHT22;8222;51.462;12.630;2023-04-06T10:12:07;13.20;67.60
16229;DHT22;8222;51.462;12.630;2023-04-06T10:14:34;13.00;68.50
16229;DHT22;8222;51.462;12.630;2023-04-06T10:17:04;13.00;71.20
16229;DHT22;8222;51.462;12.630;2023-04-06T10:20:12;13.30;61.80
16229;DHT22;8222;51.462;12.630;2023-04-06T10:23:05;13.50;62.50
16229;DHT22;8222;51.462;12.630;2023-04-06T10:25:31;13.90;62.00
16229;DHT22;8222;51.462;12.630;2023-04-06T10:28:19;13.90;62.70
16229;DHT22;8222;51.462;12.630;2023-04-06T10:30:45;14.00;60.40
16229;DHT22;8222;51.462;12.630;2023-04-06T10:33:14;14.00;59.60
16229;DHT22;8222;51.462;12.630;2023-04-06T10:35:40;14.10;59.80
16229;DHT22;8222;51.462;12.630;2023-04-06T10:38:06;14.40;62.50
16229;DHT22;8222;51.462;12.630;2023-04-06T10:40:36;14.60;59.70
16229;DHT22;8222;51.462;12.630;2023-04-06T10:43:18;14.60;58.10
16229;DHT22;8222;51.462;12.630;2023-04-06T10:45:44;14.60;58.70
16229;DHT22;8222;51.462;12.630;2023-04-06T10:48:18;14.70;58.60
16229;DHT22;8222;51.462;12.630;2023-04-06T10:50:48;14.80;58.90
16229;DHT22;8222;51.462;12.630;2023-04-06T10:53:25;15.00;58.40
16229;DHT22;8222;51.462;12.630;2023-04-06T10:55:52;15.00;56.60
16229;DHT22;8222;51.462;12.630;2023-04-06T10:58:19;15.10;56.70
16229;DHT22;8222;51.462;12.630;2023-04-06T11:00:49;14.80;54.50
16229;DHT22;8222;51.462;12.630;2023-04-06T11:03:15;14.40;53.70
16229;DHT22;8222;51.462;12.630;2023-04-06T11:05:48;14.00;54.80
16229;DHT22;8222;51.462;12.630;2023-04-06T11:08:26;14.40;56.40
16229;DHT22;8222;51.462;12.630;2023-04-06T11:11:07;14.30;54.50
16229;DHT22;8222;51.462;12.630;2023-04-06T11:13:48;14.20;56.00
16229;DHT22;8222;51.462;12.630;2023-04-06T11:16:30;14.30;55.00
16229;DHT22;8222;51.462;12.630;2023-04-06T11:19:03;14.30;56.10
16229;DHT22;8222;51.462;12.630;2023-04-06T11:21:33;14.30;55.80
16229;DHT22;8222;51.462;12.630;2023-04-06T11:24:18;14.40;54.70
16229;DHT22;8222;51.462;12.630;2023-04-06T11:26:53;14.40;55.50
16229;DHT22;8222;51.462;12.630;2023-04-06T11:29:24;14.40;55.90
16229;DHT22;8222;51.462;12.630;2023-04-06T11:31:51;14.30;56.30
16229;DHT22;8222;51.462;12.630;2023-04-06T11:34:19;14.50;57.50
16229;DHT22;8222;51.462;12.630;2023-04-06T11:36:47;14.70;56.10
16229;DHT22;8222;51.462;12.630;2023-04-06T11:39:21;14.80;54.80
16229;DHT22;8222;51.462;12.630;2023-04-06T11:41:51;14.90;55.70
16229;DHT22;8222;51.462;12.630;2023-04-06T11:44:32;15.00;55.80
16229;DHT22;8222;51.462;12.630;2023-04-06T11:46:58;14.90;54.00
16229;DHT22;8222;51.462;12.630;2023-04-06T11:49:31;14.70;54.00
16229;DHT22;8222;51.462;12.630;2023-04-06T11:51:59;14.90;55.80
16229;DHT22;8222;51.462;12.630;2023-04-06T11:54:35;15.00;55.00
16229;DHT22;8222;51.462;12.630;2023-04-06T11:57:03;15.10;55.90
16229;DHT22;8222;51.462;12.630;2023-04-06T11:59:31;15.30;55.10
16229;DHT22;8222;51.462;12.630;2023-04-06T12:02:00;15.20;54.80
16229;DHT22;8222;51.462;12.630;2023-04-06T12:04:26;15.20;56.50
16229;DHT22;8222;51.462;12.630;2023-04-06T12:06:52;15.20;56.20
16229;DHT22;8222;51.462;12.630;2023-04-06T12:09:18;15.10;55.40
16229;DHT22;8222;51.462;12.630;2023-04-06T12:11:44;14.80;55.20
16229;DHT22;8222;51.462;12.630;2023-04-06T12:14:11;14.60;54.80
16229;DHT22;8222;51.462;12.630;2023-04-06T12:16:37;14.80;55.90
16229;DHT22;8222;51.462;12.630;2023-04-06T12:19:04;14.80;56.50
16229;DHT22;8222;51.462;12.630;2023-04-06T12:21:31;14.70;56.00
16229;DHT22;8222;51.462;12.630;2023-04-06T12:23:58;14.40;56.80
16229;DHT22;8222;51.462;12.630;2023-04-06T12:26:24;14.00;55.60
16229;DHT22;8222;51.462;12.630;2023-04-06T12:28:50;13.70;57.50
16229;DHT22;8222;51.462;12.630;2023-04-06T12:31:21;13.50;57.30
16229;DHT22;8222;51.462;12.630;2023-04-06T12:33:48;13.50;57.20
16229;DHT22;8222;51.462;12.630;2023-04-06T12:36:15;13.60;57.20
16229;DHT22;8222;51.462;12.630;2023-04-06T12:38:41;13.70;57.50
16229;DHT22;8222;51.462;12.630;2023-04-06T12:41:07;14.00;60.00
16229;DHT22;8222;51.462;12.630;2023-04-06T12:43:33;13.90;57.00
16229;DHT22;8222;51.462;12.630;2023-04-06T12:46:01;13.90;56.80
16229;DHT22;8222;51.462;12.630;2023-04-06T12:48:27;14.10;59.30
16229;DHT22;8222;51.462;12.630;2023-04-06T12:51:01;14.60;57.80
16229;DHT22;8222;51.462;12.630;2023-04-06T12:53:28;14.80;57.80
16229;DHT22;8222;51.462;12.630;2023-04-06T12:55:55;14.80;56.20
16229;DHT22;8222;51.462;12.630;2023-04-06T12:58:21;14.90;55.90
16229;DHT22;8222;51.462;12.630;2023-04-06T13:00:48;14.60;54.90
16229;DHT22;8222;51.462;12.630;2023-04-06T13:03:14;14.40;56.80
16229;DHT22;8222;51.462;12.630;2023-04-06T13:05:47;14.20;56.30
16229;DHT22;8222;51.462;12.630;2023-04-06T13:08:14;14.30;57.50
16229;DHT22;8222;51.462;12.630;2023-04-06T13:10:50;14.40;56.50
16229;DHT22;8222;51.462;12.630;2023-04-06T13:13:16;14.30;55.90
16229;DHT22;8222;51.462;12.630;2023-04-06T13:15:47;14.50;57.70
16229;DHT22;8222;51.462;12.630;2023-04-06T13:18:13;14.60;58.20
16229;DHT22;8222;51.462;12.630;2023-04-06T13:20:38;14.40;56.60
16229;DHT22;8222;51.462;12.630;2023-04-06T13:23:06;14.20;57.50
16229;DHT22;8222;51.462;12.630;2023-04-06T13:25:32;14.00;57.90
16229;DHT22;8222;51.462;12.630;2023-04-06T13:27:58;14.00;58.00
16229;DHT22;8222;51.462;12.630;2023-04-06T13:30:24;14.00;57.70
16229;DHT22;8222;51.462;12.630;2023-04-06T13:32:50;14.20;58.30
16229;DHT22;8222;51.462;12.630;2023-04-06T13:35:16;14.20;57.70
16229;DHT22;8222;51.462;12.630;2023-04-06T13:37:44;14.30;58.40
16229;DHT22;8222;51.462;12.630;2023-04-06T13:40:11;14.30;56.20
16229;DHT22;8222;51.462;12.630;2023-04-06T13:42:37;14.50;58.10
16229;DHT22;8222;51.462;12.630;2023-04-06T13:45:06;14.70;57.60
16229;DHT22;8222;51.462;12.630;2023-04-06T13:47:31;15.00;57.00
16229;DHT22;8222;51.462;12.630;2023-04-06T13:49:57;15.10;57.20
16229;DHT22;8222;51.462;12.630;2023-04-06T13:52:23;15.30;56.90
16229;DHT22;8222;51.462;12.630;2023-04-06T13:54:51;15.30;55.70
16229;DHT22;8222;51.462;12.630;2023-04-06T13:57:16;15.20;55.90
16229;DHT22;8222;51.462;12.630;2023-04-06T13:59:44;15.20;56.00
16229;DHT22;8222;51.462;12.630;2023-04-06T14:02:10;15.20;55.10
16229;DHT22;8222;51.462;12.630;2023-04-06T14:04:36;15.20;55.20
16229;DHT22;8222;51.462;12.630;2023-04-06T14:07:03;15.20;53.20
16229;DHT22;8222;51.462;12.630;2023-04-06T14:09:32;15.00;54.10
16229;DHT22;8222;51.462;12.630;2023-04-06T14:12:01;15.20;56.70
16229;DHT22;8222;51.462;12.630;2023-04-06T14:14:27;15.30;56.50
16229;DHT22;8222;51.462;12.630;2023-04-06T14:16:52;15.30;55.70
16229;DHT22;8222;51.462;12.630;2023-04-06T14:19:19;15.30;55.90
16229;DHT22;8222;51.462;12.630;2023-04-06T14:21:47;15.10;55.80
16229;DHT22;8222;51.462;12.630;2023-04-06T14:24:17;15.20;56.90
16229;DHT22;8222;51.462;12.630;2023-04-06T14:26:43;15.10;55.60
16229;DHT22;8222;51.462;12.630;2023-04-06T14:29:10;14.80;55.90
16229;DHT22;8222;51.462;12.630;2023-04-06T14:31:36;14.70;57.00
16229;DHT22;8222;51.462;12.630;2023-04-06T14:34:02;14.70;57.30
16229;DHT22;8222;51.462;12.630;2023-04-06T14:36:32;14.50;56.10
16229;DHT22;8222;51.462;12.630;2023-04-06T14:39:06;14.20;55.80
16229;DHT22;8222;51.462;12.630;2023-04-06T14:41:36;14.20;57.20
16229;DHT22;8222;51.462;12.630;2023-04-06T14:44:01;14.40;57.90
16229;DHT22;8222;51.462;12.630;2023-04-06T14:46:30;14.40;57.00
16229;DHT22;8222;51.462;12.630;2023-04-06T14:48:57;14.30;56.50
16229;DHT22;8222;51.462;12.630;2023-04-06T14:51:27;14.30;57.80
16229;DHT22;8222;51.462;12.630;2023-04-06T14:53:53;14.30;56.70
16229;DHT22;8222;51.462;12.630;2023-04-06T14:56:21;14.20;56.50
16229;DHT22;8222;51.462;12.630;2023-04-06T14:58:47;14.00;56.80
16229;DHT22;8222;51.462;12.630;2023-04-06T15:01:13;14.00;58.10
16229;DHT22;8222;51.462;12.630;2023-04-06T15:03:39;14.10;57.00
16229;DHT22;8222;51.462;12.630;2023-04-06T15:06:11;14.00;57.40
16229;DHT22;8222;51.462;12.630;2023-04-06T15:08:36;13.80;57.40
16229;DHT22;8222;51.462;12.630;2023-04-06T15:11:02;13.90;58.00
16229;DHT22;8222;51.462;12.630;2023-04-06T15:13:28;14.00;59.40
16229;DHT22;8222;51.462;12.630;2023-04-06T15:15:54;14.10;58.30
16229;DHT22;8222;51.462;12.630;2023-04-06T15:18:20;14.20;58.00
16229;DHT22;8222;51.462;12.630;2023-04-06T15:20:46;14.20;57.40
16229;DHT22;8222;51.462;12.630;2023-04-06T15:23:13;13.80;57.50
16229;DHT22;8222;51.462;12.630;2023-04-06T15:25:41;13.80;58.80
16229;DHT22;8222;51.462;12.630;2023-04-06T15:28:07;13.80;58.60
16229;DHT22;8222;51.462;12.630;2023-04-06T15:30:38;14.10;59.70
16229;DHT22;8222;51.462;12.630;2023-04-06T15:33:06;14.40;58.40
16229;DHT22;8222;51.462;12.630;2023-04-06T15:35:33;14.40;57.90
16229;DHT22;8222;51.462;12.630;2023-04-06T15:38:13;14.70;57.50
16229;DHT22;8222;51.462;12.630;2023-04-06T15:40:48;14.80;57.40
16229;DHT22;8222;51.462;12.630;2023-04-06T15:43:16;15.00;55.90
16229;DHT22;8222;51.462;12.630;2023-04-06T15:45:42;14.90;56.30